sensor_id;sensor_type;location;lat;lon;timestamp;pressure;altitude;pressure_sealevel;temperature;humidity
59767;BME280;46248;58.364;25.582;2023-04-03T00:02:08;101966.50;;;-3.18;76.52
59767;BME280;46248;58.364;25.582;2023-04-03T00:05:30;101954.53;;;-3.20;76.87
59767;BME280;46248;58.364;25.582;2023-04-03T00:08:52;101970.69;;;-3.22;77.93
59767;BME280;46248;58.364;25.582;2023-04-03T00:12:15;101962.13;;;-3.24;77.13
59767;BME280;46248;58.364;25.582;2023-04-03T00:15:37;101959.56;;;-3.24;77.46
59767;BME280;46248;58.364;25.582;2023-04-03T00:19:00;101968.97;;;-3.23;77.35
59767;BME280;46248;58.364;25.582;2023-04-03T00:22:22;101965.44;;;-3.26;77.67
59767;BME280;46248;58.364;25.582;2023-04-03T00:25:46;101975.53;;;-3.32;78.77
59767;BME280;46248;58.364;25.582;2023-04-03T00:29:08;101952.16;;;-3.43;78.40
59767;BME280;46248;58.364;25.582;2023-04-03T00:32:30;101967.88;;;-3.31;78.60
59767;BME280;46248;58.364;25.582;2023-04-03T00:35:53;101970.31;;;-3.35;79.16
59767;BME280;46248;58.364;25.582;2023-04-03T00:39:15;101972.91;;;-3.34;78.68
59767;BME280;46248;58.364;25.582;2023-04-03T00:42:39;101969.38;;;-3.37;78.58
59767;BME280;46248;58.364;25.582;2023-04-03T00:46:02;101968.38;;;-3.42;79.56
59767;BME280;46248;58.364;25.582;2023-04-03T00:49:23;101969.31;;;-3.40;79.13
59767;BME280;46248;58.364;25.582;2023-04-03T00:52:47;101975.25;;;-3.41;80.25
59767;BME280;46248;58.364;25.582;2023-04-03T00:56:11;101976.13;;;-3.41;80.13
59767;BME280;46248;58.364;25.582;2023-04-03T00:59:36;101969.22;;;-3.43;80.09
59767;BME280;46248;58.364;25.582;2023-04-03T01:03:01;101974.28;;;-3.45;80.54
59767;BME280;46248;58.364;25.582;2023-04-03T01:06:27;101975.03;;;-3.49;79.85
59767;BME280;46248;58.364;25.582;2023-04-03T01:09:56;101975.78;;;-3.52;80.55
59767;BME280;46248;58.364;25.582;2023-04-03T01:13:24;101977.50;;;-3.52;80.80
59767;BME280;46248;58.364;25.582;2023-04-03T01:16:52;101968.78;;;-3.57;80.49
59767;BME280;46248;58.364;25.582;2023-04-03T01:20:34;101974.81;;;-3.57;81.21
59767;BME280;46248;58.364;25.582;2023-04-03T01:27:52;101974.75;;;-3.58;81.24
59767;BME280;46248;58.364;25.582;2023-04-03T01:31:20;101973.03;;;-3.59;81.07
59767;BME280;46248;58.364;25.582;2023-04-03T01:34:45;101941.56;;;-3.84;81.20
59767;BME280;46248;58.364;25.582;2023-04-03T01:38:07;101978.84;;;-3.63;81.28
59767;BME280;46248;58.364;25.582;2023-04-03T01:41:29;101973.63;;;-3.66;82.22
59767;BME280;46248;58.364;25.582;2023-04-03T01:44:51;101976.09;;;-3.70;81.70
59767;BME280;46248;58.364;25.582;2023-04-03T01:48:13;101985.56;;;-3.67;81.83
59767;BME280;46248;58.364;25.582;2023-04-03T01:51:37;101977.88;;;-3.69;82.13
59767;BME280;46248;58.364;25.582;2023-04-03T01:54:59;101975.06;;;-3.76;82.48
59767;BME280;46248;58.364;25.582;2023-04-03T01:58:21;101984.63;;;-3.71;82.53
59767;BME280;46248;58.364;25.582;2023-04-03T02:01:43;101986.31;;;-3.71;82.82
59767;BME280;46248;58.364;25.582;2023-04-03T02:05:06;101991.53;;;-3.68;82.82
59767;BME280;46248;58.364;25.582;2023-04-03T02:08:29;101956.00;;;-3.86;82.04
59767;BME280;46248;58.364;25.582;2023-04-03T02:11:51;101987.25;;;-3.69;82.66
59767;BME280;46248;58.364;25.582;2023-04-03T02:15:13;101988.88;;;-3.71;82.61
59767;BME280;46248;58.364;25.582;2023-04-03T02:18:36;101991.38;;;-3.73;82.92
59767;BME280;46248;58.364;25.582;2023-04-03T02:21:58;101990.47;;;-3.75;82.63
59767;BME280;46248;58.364;25.582;2023-04-03T02:25:21;101983.75;;;-3.71;82.95
59767;BME280;46248;58.364;25.582;2023-04-03T02:28:43;101965.56;;;-3.80;82.59
59767;BME280;46248;58.364;25.582;2023-04-03T02:32:05;101974.03;;;-3.81;82.75
59767;BME280;46248;58.364;25.582;2023-04-03T02:35:27;101970.59;;;-3.82;82.87
59767;BME280;46248;58.364;25.582;2023-04-03T02:38:49;101985.34;;;-3.75;82.82
59767;BME280;46248;58.364;25.582;2023-04-03T02:42:12;101990.38;;;-3.78;82.79
59767;BME280;46248;58.364;25.582;2023-04-03T02:45:34;101990.47;;;-3.75;82.89
59767;BME280;46248;58.364;25.582;2023-04-03T02:48:56;101980.94;;;-3.79;83.51
59767;BME280;46248;58.364;25.582;2023-04-03T02:52:18;101993.84;;;-3.76;82.94
59767;BME280;46248;58.364;25.582;2023-04-03T02:55:40;101993.84;;;-3.76;83.45
59767;BME280;46248;58.364;25.582;2023-04-03T02:59:03;101972.97;;;-3.88;83.06
59767;BME280;46248;58.364;25.582;2023-04-03T03:02:26;101990.28;;;-3.81;83.07
59767;BME280;46248;58.364;25.582;2023-04-03T03:05:48;101991.09;;;-3.82;83.29
59767;BME280;46248;58.364;25.582;2023-04-03T03:09:09;101978.16;;;-3.86;83.29
59767;BME280;46248;58.364;25.582;2023-04-03T03:12:31;101985.16;;;-3.81;82.95
59767;BME280;46248;58.364;25.582;2023-04-03T03:15:54;101985.94;;;-3.83;82.97
59767;BME280;46248;58.364;25.582;2023-04-03T03:19:16;101994.50;;;-3.81;83.17
59767;BME280;46248;58.364;25.582;2023-04-03T03:22:38;101987.63;;;-3.84;83.39
59767;BME280;46248;58.364;25.582;2023-04-03T03:26:02;101991.75;;;-3.87;82.95
59767;BME280;46248;58.364;25.582;2023-04-03T03:29:24;101993.44;;;-3.88;83.32
59767;BME280;46248;58.364;25.582;2023-04-03T03:32:48;101983.13;;;-3.91;83.36
59767;BME280;46248;58.364;25.582;2023-04-03T03:36:10;101978.78;;;-3.94;83.08
59767;BME280;46248;58.364;25.582;2023-04-03T03:39:32;101986.53;;;-3.91;83.12
59767;BME280;46248;58.364;25.582;2023-04-03T03:42:54;101991.75;;;-3.87;82.70
59767;BME280;46248;58.364;25.582;2023-04-03T03:46:17;101981.34;;;-3.94;82.73
59767;BME280;46248;58.364;25.582;2023-04-03T03:49:40;101989.06;;;-3.92;82.94
59767;BME280;46248;58.364;25.582;2023-04-03T03:53:02;101992.31;;;-3.98;83.03
59767;BME280;46248;58.364;25.582;2023-04-03T03:56:24;101993.22;;;-3.96;83.02
59767;BME280;46248;58.364;25.582;2023-04-03T03:59:47;101989.81;;;-3.96;82.40
59767;BME280;46248;58.364;25.582;2023-04-03T04:03:09;101992.47;;;-3.93;82.54
59767;BME280;46248;58.364;25.582;2023-04-03T04:06:32;101980.34;;;-3.99;82.32
59767;BME280;46248;58.364;25.582;2023-04-03T04:09:54;101985.59;;;-3.94;82.43
59767;BME280;46248;58.364;25.582;2023-04-03T04:13:16;101989.94;;;-3.92;82.58
59767;BME280;46248;58.364;25.582;2023-04-03T04:16:38;101988.25;;;-3.91;82.41
59767;BME280;46248;58.364;25.582;2023-04-03T04:20:01;101984.03;;;-3.89;82.57
59767;BME280;46248;58.364;25.582;2023-04-03T04:23:24;101984.09;;;-3.87;82.27
59767;BME280;46248;58.364;25.582;2023-04-03T04:26:46;101995.31;;;-3.84;82.26
59767;BME280;46248;58.364;25.582;2023-04-03T04:30:09;101992.84;;;-3.81;81.74
59767;BME280;46248;58.364;25.582;2023-04-03T04:33:32;101995.50;;;-3.78;81.61
59767;BME280;46248;58.364;25.582;2023-04-03T04:36:54;101991.34;;;-3.74;81.50
59767;BME280;46248;58.364;25.582;2023-04-03T04:40:17;101985.44;;;-3.72;81.33
59767;BME280;46248;58.364;25.582;2023-04-03T04:43:39;101978.84;;;-3.63;80.92
59767;BME280;46248;58.364;25.582;2023-04-03T04:47:01;101986.81;;;-3.54;81.04
59767;BME280;46248;58.364;25.582;2023-04-03T04:50:23;101978.59;;;-3.44;80.43
59767;BME280;46248;58.364;25.582;2023-04-03T04:53:45;101979.56;;;-3.39;79.75
59767;BME280;46248;58.364;25.582;2023-04-03T04:57:08;101981.50;;;-3.32;79.31
59767;BME280;46248;58.364;25.582;2023-04-03T05:00:31;101970.56;;;-3.26;78.88
59767;BME280;46248;58.364;25.582;2023-04-03T05:03:53;101969.88;;;-3.20;78.85
59767;BME280;46248;58.364;25.582;2023-04-03T05:07:15;101966.59;;;-3.15;78.13
59767;BME280;46248;58.364;25.582;2023-04-03T05:10:37;101969.34;;;-3.09;77.80
59767;BME280;46248;58.364;25.582;2023-04-03T05:14:02;101971.25;;;-3.02;77.65
59767;BME280;46248;58.364;25.582;2023-04-03T05:17:26;101982.53;;;-2.95;76.60
59767;BME280;46248;58.364;25.582;2023-04-03T05:20:49;101974.00;;;-2.95;76.25
59767;BME280;46248;58.364;25.582;2023-04-03T05:24:11;101958.63;;;-2.94;76.27
59767;BME280;46248;58.364;25.582;2023-04-03T05:27:33;101963.22;;;-2.84;75.33
59767;BME280;46248;58.364;25.582;2023-04-03T05:30:57;101946.75;;;-2.92;76.06
59767;BME280;46248;58.364;25.582;2023-04-03T05:34:19;101965.22;;;-2.72;75.48
59767;BME280;46248;58.364;25.582;2023-04-03T05:37:41;101956.88;;;-2.65;74.54
59767;BME280;46248;58.364;25.582;2023-04-03T05:41:02;101957.06;;;-2.57;74.45
59767;BME280;46248;58.364;25.582;2023-04-03T05:44:24;101944.50;;;-2.46;73.69
59767;BME280;46248;58.364;25.582;2023-04-03T05:47:47;101934.44;;;-2.39;73.15
59767;BME280;46248;58.364;25.582;2023-04-03T05:51:15;101945.66;;;-2.34;72.65
59767;BME280;46248;58.364;25.582;2023-04-03T05:54:37;101951.88;;;-2.25;72.95
59767;BME280;46248;58.364;25.582;2023-04-03T05:57:59;101949.50;;;-2.18;71.49
59767;BME280;46248;58.364;25.582;2023-04-03T06:01:21;101945.19;;;-2.19;71.71
59767;BME280;46248;58.364;25.582;2023-04-03T06:04:45;101941.97;;;-2.10;71.21
59767;BME280;46248;58.364;25.582;2023-04-03T06:08:08;101920.44;;;-2.17;70.70
59767;BME280;46248;58.364;25.582;2023-04-03T06:11:30;101965.31;;;-1.99;70.30
59767;BME280;46248;58.364;25.582;2023-04-03T06:14:52;101953.38;;;-1.97;70.01
59767;BME280;46248;58.364;25.582;2023-04-03T06:18:14;101956.84;;;-1.95;69.88
59767;BME280;46248;58.364;25.582;2023-04-03T06:21:38;101943.03;;;-2.00;69.88
59767;BME280;46248;58.364;25.582;2023-04-03T06:24:59;101952.50;;;-1.99;69.98
59767;BME280;46248;58.364;25.582;2023-04-03T06:28:21;101954.44;;;-1.89;70.16
59767;BME280;46248;58.364;25.582;2023-04-03T06:31:45;101959.81;;;-1.78;69.12
59767;BME280;46248;58.364;25.582;2023-04-03T06:35:08;101952.91;;;-1.81;68.83
59767;BME280;46248;58.364;25.582;2023-04-03T06:38:32;101957.97;;;-1.84;69.26
59767;BME280;46248;58.364;25.582;2023-04-03T06:41:54;101956.16;;;-1.88;68.68
59767;BME280;46248;58.364;25.582;2023-04-03T06:45:16;101951.94;;;-1.86;69.24
59767;BME280;46248;58.364;25.582;2023-04-03T06:48:39;101943.66;;;-1.73;68.94
59767;BME280;46248;58.364;25.582;2023-04-03T06:52:02;101950.94;;;-1.53;68.34
59767;BME280;46248;58.364;25.582;2023-04-03T06:55:26;101954.69;;;-1.39;68.40
59767;BME280;46248;58.364;25.582;2023-04-03T06:58:48;101943.69;;;-1.30;67.98
59767;BME280;46248;58.364;25.582;2023-04-03T07:02:11;101941.31;;;-1.21;67.35
59767;BME280;46248;58.364;25.582;2023-04-03T07:05:34;101957.81;;;-1.11;66.82
59767;BME280;46248;58.364;25.582;2023-04-03T07:08:56;101950.38;;;-0.96;67.11
59767;BME280;46248;58.364;25.582;2023-04-03T07:12:19;101961.78;;;-0.82;66.42
59767;BME280;46248;58.364;25.582;2023-04-03T07:15:41;101956.75;;;-0.76;65.70
59767;BME280;46248;58.364;25.582;2023-04-03T07:19:03;101931.88;;;-0.77;65.09
59767;BME280;46248;58.364;25.582;2023-04-03T07:22:25;101945.53;;;-0.81;65.93
59767;BME280;46248;58.364;25.582;2023-04-03T07:25:48;101937.88;;;-0.76;65.53
59767;BME280;46248;58.364;25.582;2023-04-03T07:29:12;101938.94;;;-0.66;65.79
59767;BME280;46248;58.364;25.582;2023-04-03T07:32:34;101944.34;;;-0.51;65.99
59767;BME280;46248;58.364;25.582;2023-04-03T07:35:57;101922.88;;;-0.52;64.37
59767;BME280;46248;58.364;25.582;2023-04-03T07:39:19;101933.38;;;-0.39;63.51
59767;BME280;46248;58.364;25.582;2023-04-03T07:42:41;101932.69;;;-0.29;63.09
59767;BME280;46248;58.364;25.582;2023-04-03T07:46:06;101945.38;;;-0.40;63.14
59767;BME280;46248;58.364;25.582;2023-04-03T07:49:28;101933.53;;;-0.30;63.51
59767;BME280;46248;58.364;25.582;2023-04-03T07:52:49;101935.41;;;-0.20;63.09
59767;BME280;46248;58.364;25.582;2023-04-03T07:56:13;101910.47;;;-0.22;62.48
59767;BME280;46248;58.364;25.582;2023-04-03T07:59:35;101918.66;;;0.07;63.00
59767;BME280;46248;58.364;25.582;2023-04-03T08:02:58;101927.25;;;0.09;62.49
59767;BME280;46248;58.364;25.582;2023-04-03T08:06:20;101923.06;;;0.15;62.38
59767;BME280;46248;58.364;25.582;2023-04-03T08:09:57;101929.81;;;0.07;62.41
59767;BME280;46248;58.364;25.582;2023-04-03T08:13:19;101924.56;;;0.01;62.04
59767;BME280;46248;58.364;25.582;2023-04-03T08:16:41;101916.94;;;0.07;62.42
59767;BME280;46248;58.364;25.582;2023-04-03T08:20:06;101925.66;;;0.17;62.29
59767;BME280;46248;58.364;25.582;2023-04-03T08:23:28;101917.88;;;0.14;61.50
59767;BME280;46248;58.364;25.582;2023-04-03T08:26:50;101912.72;;;0.14;61.89
59767;BME280;46248;58.364;25.582;2023-04-03T08:30:13;101898.13;;;0.14;62.12
59767;BME280;46248;58.364;25.582;2023-04-03T08:33:35;101909.47;;;0.26;62.40
59767;BME280;46248;58.364;25.582;2023-04-03T08:36:58;101906.13;;;0.33;61.92
59767;BME280;46248;58.364;25.582;2023-04-03T08:40:20;101904.53;;;0.44;62.16
59767;BME280;46248;58.364;25.582;2023-04-03T08:43:54;101904.72;;;0.59;62.18
59767;BME280;46248;58.364;25.582;2023-04-03T08:47:22;101903.97;;;0.68;61.26
59767;BME280;46248;58.364;25.582;2023-04-03T08:50:47;101886.88;;;0.75;61.36
59767;BME280;46248;58.364;25.582;2023-04-03T08:54:22;101896.44;;;0.86;61.21
59767;BME280;46248;58.364;25.582;2023-04-03T08:57:47;101898.16;;;0.86;61.42
59767;BME280;46248;58.364;25.582;2023-04-03T09:01:17;101886.16;;;0.89;60.98
59767;BME280;46248;58.364;25.582;2023-04-03T09:04:41;101896.50;;;0.91;61.95
59767;BME280;46248;58.364;25.582;2023-04-03T09:08:09;101845.63;;;0.75;62.71
59767;BME280;46248;58.364;25.582;2023-04-03T09:11:44;101891.41;;;0.97;62.20
59767;BME280;46248;58.364;25.582;2023-04-03T09:15:15;101881.16;;;1.05;62.86
59767;BME280;46248;58.364;25.582;2023-04-03T09:18:55;101872.63;;;1.10;60.53
59767;BME280;46248;58.364;25.582;2023-04-03T09:22:21;101874.28;;;1.05;60.93
59767;BME280;46248;58.364;25.582;2023-04-03T09:25:45;101875.91;;;0.94;60.85
59767;BME280;46248;58.364;25.582;2023-04-03T09:29:15;101882.72;;;0.89;60.98
59767;BME280;46248;58.364;25.582;2023-04-03T09:32:41;101874.94;;;0.84;61.66
59767;BME280;46248;58.364;25.582;2023-04-03T09:36:03;101875.91;;;0.96;62.19
59767;BME280;46248;58.364;25.582;2023-04-03T09:39:27;101870.78;;;0.97;61.92
59767;BME280;46248;58.364;25.582;2023-04-03T09:42:49;101869.03;;;0.96;62.09
59767;BME280;46248;58.364;25.582;2023-04-03T09:46:32;101865.69;;;1.03;62.07
59767;BME280;46248;58.364;25.582;2023-04-03T09:50:17;101861.47;;;1.14;61.80
59767;BME280;46248;58.364;25.582;2023-04-03T09:53:41;101889.84;;;1.13;60.58
59767;BME280;46248;58.364;25.582;2023-04-03T09:57:10;101868.28;;;1.08;61.07
59767;BME280;46248;58.364;25.582;2023-04-03T10:00:33;101866.59;;;1.10;61.53
59767;BME280;46248;58.364;25.582;2023-04-03T10:04:08;101867.47;;;1.12;61.22
59767;BME280;46248;58.364;25.582;2023-04-03T10:07:33;101857.06;;;1.01;61.02
59767;BME280;46248;58.364;25.582;2023-04-03T10:11:13;101861.34;;;1.02;60.96
59767;BME280;46248;58.364;25.582;2023-04-03T10:14:37;101837.06;;;0.77;60.51
59767;BME280;46248;58.364;25.582;2023-04-03T10:18:02;101863.03;;;0.96;61.55
59767;BME280;46248;58.364;25.582;2023-04-03T10:21:45;101868.22;;;0.97;61.38
59767;BME280;46248;58.364;25.582;2023-04-03T10:25:15;101863.91;;;0.98;61.76
59767;BME280;46248;58.364;25.582;2023-04-03T10:28:47;101864.72;;;0.92;62.24
59767;BME280;46248;58.364;25.582;2023-04-03T10:32:13;101879.34;;;0.95;62.97
59767;BME280;46248;58.364;25.582;2023-04-03T10:35:44;101870.78;;;0.99;63.08
59767;BME280;46248;58.364;25.582;2023-04-03T10:39:23;101859.41;;;0.78;62.01
59767;BME280;46248;58.364;25.582;2023-04-03T10:42:52;101875.66;;;0.73;63.34
59767;BME280;46248;58.364;25.582;2023-04-03T10:46:23;101879.06;;;0.67;65.57
59767;BME280;46248;58.364;25.582;2023-04-03T10:49:57;101867.75;;;0.57;67.18
59767;BME280;46248;58.364;25.582;2023-04-03T10:53:27;101874.53;;;0.48;67.43
59767;BME280;46248;58.364;25.582;2023-04-03T10:56:56;101852.84;;;0.30;68.87
59767;BME280;46248;58.364;25.582;2023-04-03T11:00:36;101874.41;;;0.37;71.25
59767;BME280;46248;58.364;25.582;2023-04-03T11:04:02;101873.50;;;0.36;72.42
59767;BME280;46248;58.364;25.582;2023-04-03T11:07:27;101863.06;;;0.24;73.69
59767;BME280;46248;58.364;25.582;2023-04-03T11:10:53;101875.91;;;0.21;77.19
59767;BME280;46248;58.364;25.582;2023-04-03T11:14:26;101878.25;;;0.04;79.37
59767;BME280;46248;58.364;25.582;2023-04-03T11:17:53;101885.00;;;-0.06;80.05
59767;BME280;46248;58.364;25.582;2023-04-03T11:21:19;101879.75;;;-0.12;81.13
59767;BME280;46248;58.364;25.582;2023-04-03T11:24:46;101873.59;;;-0.23;81.46
59767;BME280;46248;58.364;25.582;2023-04-03T11:28:14;101874.44;;;-0.24;81.90
59767;BME280;46248;58.364;25.582;2023-04-03T11:31:47;101883.84;;;-0.26;82.05
59767;BME280;46248;58.364;25.582;2023-04-03T11:35:12;101879.44;;;-0.33;83.11
59767;BME280;46248;58.364;25.582;2023-04-03T11:38:37;101887.00;;;-0.42;83.39
59767;BME280;46248;58.364;25.582;2023-04-03T11:42:15;101880.13;;;-0.45;84.69
59767;BME280;46248;58.364;25.582;2023-04-03T11:45:49;101886.97;;;-0.44;84.37
59767;BME280;46248;58.364;25.582;2023-04-03T11:49:54;101885.13;;;-0.53;85.16
59767;BME280;46248;58.364;25.582;2023-04-03T11:53:32;101884.31;;;-0.50;85.69
59767;BME280;46248;58.364;25.582;2023-04-03T11:56:54;101873.22;;;-0.46;85.76
59767;BME280;46248;58.364;25.582;2023-04-03T12:00:48;101875.66;;;-0.55;86.10
59767;BME280;46248;58.364;25.582;2023-04-03T12:04:12;101885.13;;;-0.53;85.29
59767;BME280;46248;58.364;25.582;2023-04-03T12:07:37;101875.63;;;-0.57;86.16
59767;BME280;46248;58.364;25.582;2023-04-03T12:11:15;101864.44;;;-0.59;86.98
59767;BME280;46248;58.364;25.582;2023-04-03T12:14:43;101882.50;;;-0.57;86.50
59767;BME280;46248;58.364;25.582;2023-04-03T12:22:17;101878.31;;;-0.51;87.49
59767;BME280;46248;58.364;25.582;2023-04-03T12:25:48;101874.78;;;-0.57;87.63
59767;BME280;46248;58.364;25.582;2023-04-03T12:29:17;101882.75;;;-0.42;87.23
59767;BME280;46248;58.364;25.582;2023-04-03T12:32:54;101874.88;;;-0.51;86.45
59767;BME280;46248;58.364;25.582;2023-04-03T12:36:42;101882.53;;;-0.54;87.44
59767;BME280;46248;58.364;25.582;2023-04-03T12:40:14;101892.13;;;-0.42;88.00
59767;BME280;46248;58.364;25.582;2023-04-03T12:44:00;101880.06;;;-0.48;87.20
59767;BME280;46248;58.364;25.582;2023-04-03T12:47:28;101884.31;;;-0.50;87.84
59767;BME280;46248;58.364;25.582;2023-04-03T12:50:53;101881.59;;;-0.59;87.77
59767;BME280;46248;58.364;25.582;2023-04-03T12:54:19;101884.88;;;-0.68;88.41
59767;BME280;46248;58.364;25.582;2023-04-03T12:57:44;101888.41;;;-0.61;89.39
59767;BME280;46248;58.364;25.582;2023-04-03T13:01:11;101886.84;;;-0.53;89.56
59767;BME280;46248;58.364;25.582;2023-04-03T13:04:34;101884.19;;;-0.58;88.91
59767;BME280;46248;58.364;25.582;2023-04-03T13:08:02;101878.22;;;-0.55;88.10
59767;BME280;46248;58.364;25.582;2023-04-03T13:11:27;101885.13;;;-0.54;89.74
59767;BME280;46248;58.364;25.582;2023-04-03T13:14:53;101873.97;;;-0.52;89.52
59767;BME280;46248;58.364;25.582;2023-04-03T13:18:28;101884.28;;;-0.53;88.12
59767;BME280;46248;58.364;25.582;2023-04-03T13:21:57;101870.44;;;-0.58;88.73
59767;BME280;46248;58.364;25.582;2023-04-03T13:25:21;101878.28;;;-0.52;88.42
59767;BME280;46248;58.364;25.582;2023-04-03T13:28:45;101874.88;;;-0.50;88.69
59767;BME280;46248;58.364;25.582;2023-04-03T13:32:17;101865.41;;;-0.54;88.46
59767;BME280;46248;58.364;25.582;2023-04-03T13:35:42;101876.53;;;-0.53;88.53
59767;BME280;46248;58.364;25.582;2023-04-03T13:39:06;101873.00;;;-0.60;89.41
59767;BME280;46248;58.364;25.582;2023-04-03T13:42:30;101876.56;;;-0.52;90.27
59767;BME280;46248;58.364;25.582;2023-04-03T13:46:05;101877.53;;;-0.45;89.63
59767;BME280;46248;58.364;25.582;2023-04-03T13:49:43;101869.13;;;-0.35;90.34
59767;BME280;46248;58.364;25.582;2023-04-03T13:53:12;101868.34;;;-0.29;89.37
59767;BME280;46248;58.364;25.582;2023-04-03T13:56:37;101858.88;;;-0.32;87.36
59767;BME280;46248;58.364;25.582;2023-04-03T13:59:59;101863.91;;;-0.38;86.96
59767;BME280;46248;58.364;25.582;2023-04-03T14:03:25;101864.72;;;-0.40;87.07
59767;BME280;46248;58.364;25.582;2023-04-03T14:06:48;101858.53;;;-0.52;89.15
59767;BME280;46248;58.364;25.582;2023-04-03T14:10:11;101854.06;;;-0.65;89.08
59767;BME280;46248;58.364;25.582;2023-04-03T14:13:33;101869.69;;;-0.53;89.36
59767;BME280;46248;58.364;25.582;2023-04-03T14:16:57;101864.50;;;-0.56;89.85
59767;BME280;46248;58.364;25.582;2023-04-03T14:20:24;101864.59;;;-0.51;90.42
59767;BME280;46248;58.364;25.582;2023-04-03T14:23:47;101859.34;;;-0.57;89.25
59767;BME280;46248;58.364;25.582;2023-04-03T14:27:16;101867.13;;;-0.53;89.96
59767;BME280;46248;58.364;25.582;2023-04-03T14:30:38;101862.06;;;-0.48;89.83
59767;BME280;46248;58.364;25.582;2023-04-03T14:34:00;101860.25;;;-0.54;89.54
59767;BME280;46248;58.364;25.582;2023-04-03T14:37:24;101859.34;;;-0.56;89.84
59767;BME280;46248;58.364;25.582;2023-04-03T14:40:46;101857.59;;;-0.58;90.49
59767;BME280;46248;58.364;25.582;2023-04-03T14:44:09;101857.50;;;-0.64;89.53
59767;BME280;46248;58.364;25.582;2023-04-03T14:47:32;101851.44;;;-0.68;89.97
59767;BME280;46248;58.364;25.582;2023-04-03T14:50:54;101847.00;;;-0.78;90.22
59767;BME280;46248;58.364;25.582;2023-04-03T14:54:25;101853.72;;;-0.85;91.10
59767;BME280;46248;58.364;25.582;2023-04-03T14:57:48;101854.56;;;-0.87;91.65
59767;BME280;46248;58.364;25.582;2023-04-03T15:01:12;101857.09;;;-0.89;91.40
59767;BME280;46248;58.364;25.582;2023-04-03T15:04:34;101852.69;;;-0.95;91.83
59767;BME280;46248;58.364;25.582;2023-04-03T15:07:57;101851.88;;;-0.94;91.97
59767;BME280;46248;58.364;25.582;2023-04-03T15:11:21;101851.03;;;-0.93;92.07
59767;BME280;46248;58.364;25.582;2023-04-03T15:14:42;101851.78;;;-0.98;92.47
59767;BME280;46248;58.364;25.582;2023-04-03T15:18:18;101846.59;;;-1.03;92.05
59767;BME280;46248;58.364;25.582;2023-04-03T15:21:41;101848.19;;;-1.08;92.72
59767;BME280;46248;58.364;25.582;2023-04-03T15:25:04;101842.94;;;-1.12;93.21
59767;BME280;46248;58.364;25.582;2023-04-03T15:28:28;101845.69;;;-1.05;92.44
59767;BME280;46248;58.364;25.582;2023-04-03T15:31:51;101834.31;;;-1.16;92.40
59767;BME280;46248;58.364;25.582;2023-04-03T15:35:15;101860.13;;;-1.11;91.93
59767;BME280;46248;58.364;25.582;2023-04-03T15:38:37;101862.69;;;-1.11;93.21
59767;BME280;46248;58.364;25.582;2023-04-03T15:41:59;101858.25;;;-1.19;93.34
59767;BME280;46248;58.364;25.582;2023-04-03T15:45:28;101855.75;;;-1.16;92.92
59767;BME280;46248;58.364;25.582;2023-04-03T15:48:51;101852.47;;;-1.08;92.87
59767;BME280;46248;58.364;25.582;2023-04-03T15:52:15;101856.00;;;-1.02;92.34
59767;BME280;46248;58.364;25.582;2023-04-03T15:55:38;101857.69;;;-1.04;91.85
59767;BME280;46248;58.364;25.582;2023-04-03T15:59:00;101855.06;;;-1.07;91.63
59767;BME280;46248;58.364;25.582;2023-04-03T16:02:22;101850.88;;;-1.00;91.54
59767;BME280;46248;58.364;25.582;2023-04-03T16:05:48;101856.03;;;-1.00;90.95
59767;BME280;46248;58.364;25.582;2023-04-03T16:09:12;101851.69;;;-1.04;90.37
59767;BME280;46248;58.364;25.582;2023-04-03T16:12:34;101823.09;;;-1.21;90.08
59767;BME280;46248;58.364;25.582;2023-04-03T16:15:56;101852.53;;;-1.05;89.03
59767;BME280;46248;58.364;25.582;2023-04-03T16:19:18;101857.56;;;-1.10;89.30
59767;BME280;46248;58.364;25.582;2023-04-03T16:22:45;101847.34;;;-1.07;89.58
59767;BME280;46248;58.364;25.582;2023-04-03T16:26:08;101853.38;;;-1.05;89.37
59767;BME280;46248;58.364;25.582;2023-04-03T16:29:30;101863.69;;;-1.03;88.65
59767;BME280;46248;58.364;25.582;2023-04-03T16:32:54;101861.06;;;-1.06;88.42
59767;BME280;46248;58.364;25.582;2023-04-03T16:36:17;101867.16;;;-1.03;88.52
59767;BME280;46248;58.364;25.582;2023-04-03T16:39:39;101866.28;;;-1.02;88.31
59767;BME280;46248;58.364;25.582;2023-04-03T16:43:02;101863.72;;;-1.02;88.51
59767;BME280;46248;58.364;25.582;2023-04-03T16:46:24;101859.38;;;-1.06;88.94
59767;BME280;46248;58.364;25.582;2023-04-03T16:49:46;101868.81;;;-1.03;88.83
59767;BME280;46248;58.364;25.582;2023-04-03T16:53:08;101875.63;;;-1.07;88.68
59767;BME280;46248;58.364;25.582;2023-04-03T16:56:30;101860.06;;;-1.14;89.13
59767;BME280;46248;58.364;25.582;2023-04-03T16:59:54;101874.66;;;-1.13;89.50
59767;BME280;46248;58.364;25.582;2023-04-03T17:03:16;101879.72;;;-1.17;89.99
59767;BME280;46248;58.364;25.582;2023-04-03T17:06:39;101881.34;;;-1.22;89.85
59767;BME280;46248;58.364;25.582;2023-04-03T17:10:01;101877.06;;;-1.21;89.79
59767;BME280;46248;58.364;25.582;2023-04-03T17:13:22;101877.03;;;-1.23;89.59
59767;BME280;46248;58.364;25.582;2023-04-03T17:16:52;101884.72;;;-1.24;89.64
59767;BME280;46248;58.364;25.582;2023-04-03T17:20:15;101883.78;;;-1.28;89.71
59767;BME280;46248;58.364;25.582;2023-04-03T17:23:38;101881.97;;;-1.33;88.97
59767;BME280;46248;58.364;25.582;2023-04-03T17:27:01;101865.44;;;-1.48;89.43
59767;BME280;46248;58.364;25.582;2023-04-03T17:30:23;101884.34;;;-1.43;89.26
59767;BME280;46248;58.364;25.582;2023-04-03T17:33:46;101876.53;;;-1.49;89.22
59767;BME280;46248;58.364;25.582;2023-04-03T17:37:08;101879.03;;;-1.52;88.64
59767;BME280;46248;58.364;25.582;2023-04-03T17:40:30;101874.63;;;-1.57;88.59
59767;BME280;46248;58.364;25.582;2023-04-03T17:43:55;101880.59;;;-1.60;88.82
59767;BME280;46248;58.364;25.582;2023-04-03T17:47:16;101877.09;;;-1.64;89.01
59767;BME280;46248;58.364;25.582;2023-04-03T17:50:40;101871.00;;;-1.69;88.61